sensor_id;sensor_type;location;lat;lon;timestamp;P1;P2;P0
70915;PMS5003;58557;50.982;-3.222;2022-11-21T00:02:21;41;37;
70915;PMS5003;58557;50.982;-3.222;2022-11-21T00:04:46;40;28;
70915;PMS5003;58557;50.982;-3.222;2022-11-21T00:07:07;44;33;
70915;PMS5003;58557;50.982;-3.222;2022-11-21T00:09:38;27;23;
70915;PMS5003;58557;50.982;-3.222;2022-11-21T00:12:03;31;28;
70915;PMS5003;58557;50.982;-3.222;2022-11-21T00:14:28;27;23;
70915;PMS5003;58557;50.982;-3.222;2022-11-21T00:16:54;26;21;
70915;PMS5003;58557;50.982;-3.222;2022-11-21T00:19:19;29;24;
70915;PMS5003;58557;50.982;-3.222;2022-11-21T00:21:44;19;18;
70915;PMS5003;58557;50.982;-3.222;2022-11-21T00:24:05;22;18;
70915;PMS5003;58557;50.982;-3.222;2022-11-21T00:26:31;26;19;
70915;PMS5003;58557;50.982;-3.222;2022-11-21T00:28:56;22;14;
70915;PMS5003;58557;50.982;-3.222;2022-11-21T00:31:26;24;17;
70915;PMS5003;58557;50.982;-3.222;2022-11-21T00:33:47;22;19;
70915;PMS5003;58557;50.982;-3.222;2022-11-21T00:36:12;18;17;
70915;PMS5003;58557;50.982;-3.222;2022-11-21T00:38:37;18;17;
70915;PMS5003;58557;50.982;-3.222;2022-11-21T00:41:03;16;13;
70915;PMS5003;58557;50.982;-3.222;2022-11-21T00:43:28;17;16;
70915;PMS5003;58557;50.982;-3.222;2022-11-21T00:45:54;20;16;
70915;PMS5003;58557;50.982;-3.222;2022-11-21T00:48:19;26;26;
70915;PMS5003;58557;50.982;-3.222;2022-11-21T00:50:48;20;17;
70915;PMS5003;58557;50.982;-3.222;2022-11-21T00:53:09;29;21;
70915;PMS5003;58557;50.982;-3.222;2022-11-21T00:55:40;21;20;
70915;PMS5003;58557;50.982;-3.222;2022-11-21T00:58:05;25;17;
70915;PMS5003;58557;50.982;-3.222;2022-11-21T01:00:30;20;16;
70915;PMS5003;58557;50.982;-3.222;2022-11-21T01:02:50;20;13;
70915;PMS5003;58557;50.982;-3.222;2022-11-21T01:05:16;22;15;
70915;PMS5003;58557;50.982;-3.222;2022-11-21T01:07:46;19;15;
70915;PMS5003;58557;50.982;-3.222;2022-11-21T01:10:06;15;12;
70915;PMS5003;58557;50.982;-3.222;2022-11-21T01:12:36;22;17;
70915;PMS5003;58557;50.982;-3.222;2022-11-21T01:14:57;30;26;
70915;PMS5003;58557;50.982;-3.222;2022-11-21T01:17:24;19;13;
70915;PMS5003;58557;50.982;-3.222;2022-11-21T01:19:48;17;15;
70915;PMS5003;58557;50.982;-3.222;2022-11-21T01:22:19;21;17;
70915;PMS5003;58557;50.982;-3.222;2022-11-21T01:24:45;20;13;
70915;PMS5003;58557;50.982;-3.222;2022-11-21T01:27:10;21;16;
70915;PMS5003;58557;50.982;-3.222;2022-11-21T01:29:35;25;17;
70915;PMS5003;58557;50.982;-3.222;2022-11-21T01:31:56;22;13;
70915;PMS5003;58557;50.982;-3.222;2022-11-21T01:34:21;19;13;
70915;PMS5003;58557;50.982;-3.222;2022-11-21T01:36:52;22;17;
70915;PMS5003;58557;50.982;-3.222;2022-11-21T01:39:12;19;18;
70915;PMS5003;58557;50.982;-3.222;2022-11-21T01:41:44;14;12;
70915;PMS5003;58557;50.982;-3.222;2022-11-21T01:44:08;18;14;
70915;PMS5003;58557;50.982;-3.222;2022-11-21T01:46:29;22;17;
70915;PMS5003;58557;50.982;-3.222;2022-11-21T01:48:55;18;16;
70915;PMS5003;58557;50.982;-3.222;2022-11-21T01:51:20;19;17;
70915;PMS5003;58557;50.982;-3.222;2022-11-21T01:53:45;25;19;
70915;PMS5003;58557;50.982;-3.222;2022-11-21T01:56:11;22;19;
70915;PMS5003;58557;50.982;-3.222;2022-11-21T01:58:36;16;13;
70915;PMS5003;58557;50.982;-3.222;2022-11-21T02:01:07;23;18;
70915;PMS5003;58557;50.982;-3.222;2022-11-21T02:03:28;22;14;
70915;PMS5003;58557;50.982;-3.222;2022-11-21T02:05:57;13;13;
70915;PMS5003;58557;50.982;-3.222;2022-11-21T02:08:18;17;14;
70915;PMS5003;58557;50.982;-3.222;2022-11-21T02:10:50;18;18;
70915;PMS5003;58557;50.982;-3.222;2022-11-21T02:13:13;16;12;
70915;PMS5003;58557;50.982;-3.222;2022-11-21T02:15:33;18;13;
70915;PMS5003;58557;50.982;-3.222;2022-11-21T02:18:04;20;13;
70915;PMS5003;58557;50.982;-3.222;2022-11-21T02:20:26;16;14;
70915;PMS5003;58557;50.982;-3.222;2022-11-21T02:22:52;16;12;
70915;PMS5003;58557;50.982;-3.222;2022-11-21T02:25:16;19;14;
70915;PMS5003;58557;50.982;-3.222;2022-11-21T02:27:41;23;19;
70915;PMS5003;58557;50.982;-3.222;2022-11-21T02:30:07;18;15;
70915;PMS5003;58557;50.982;-3.222;2022-11-21T02:32:33;17;12;
70915;PMS5003;58557;50.982;-3.222;2022-11-21T02:34:57;19;14;
70915;PMS5003;58557;50.982;-3.222;2022-11-21T02:37:23;17;12;
70915;PMS5003;58557;50.982;-3.222;2022-11-21T02:39:53;22;13;
70915;PMS5003;58557;50.982;-3.222;2022-11-21T02:42:15;13;11;
70915;PMS5003;58557;50.982;-3.222;2022-11-21T02:44:41;17;16;
70915;PMS5003;58557;50.982;-3.222;2022-11-21T02:47:05;14;13;
70915;PMS5003;58557;50.982;-3.222;2022-11-21T02:49:33;18;16;
70915;PMS5003;58557;50.982;-3.222;2022-11-21T02:51:55;17;12;
70915;PMS5003;58557;50.982;-3.222;2022-11-21T02:54:21;16;11;
70915;PMS5003;58557;50.982;-3.222;2022-11-21T02:56:47;18;13;
70915;PMS5003;58557;50.982;-3.222;2022-11-21T02:59:12;17;16;
70915;PMS5003;58557;50.982;-3.222;2022-11-21T03:01:42;26;21;
70915;PMS5003;58557;50.982;-3.222;2022-11-21T03:04:03;17;16;
70915;PMS5003;58557;50.982;-3.222;2022-11-21T03:06:28;17;13;
70915;PMS5003;58557;50.982;-3.222;2022-11-21T03:08:56;15;13;
70915;PMS5003;58557;50.982;-3.222;2022-11-21T03:11:19;20;17;
70915;PMS5003;58557;50.982;-3.222;2022-11-21T03:13:45;26;17;
70915;PMS5003;58557;50.982;-3.222;2022-11-21T03:16:10;17;15;
70915;PMS5003;58557;50.982;-3.222;2022-11-21T03:18:36;17;15;
70915;PMS5003;58557;50.982;-3.222;2022-11-21T03:21:01;21;15;
70915;PMS5003;58557;50.982;-3.222;2022-11-21T03:23:26;12;12;
70915;PMS5003;58557;50.982;-3.222;2022-11-21T03:25:52;16;15;
70915;PMS5003;58557;50.982;-3.222;2022-11-21T03:28:22;19;17;
70915;PMS5003;58557;50.982;-3.222;2022-11-21T03:30:42;20;15;
70915;PMS5003;58557;50.982;-3.222;2022-11-21T03:33:08;27;17;
70915;PMS5003;58557;50.982;-3.222;2022-11-21T03:35:33;17;17;
70915;PMS5003;58557;50.982;-3.222;2022-11-21T03:37:58;25;18;
70915;PMS5003;58557;50.982;-3.222;2022-11-21T03:40:29;22;17;
70915;PMS5003;58557;50.982;-3.222;2022-11-21T03:42:49;22;17;
70915;PMS5003;58557;50.982;-3.222;2022-11-21T03:45:15;17;16;
70915;PMS5003;58557;50.982;-3.222;2022-11-21T03:47:41;21;16;
70915;PMS5003;58557;50.982;-3.222;2022-11-21T03:50:06;23;16;
70915;PMS5003;58557;50.982;-3.222;2022-11-21T03:52:31;26;17;
70915;PMS5003;58557;50.982;-3.222;2022-11-21T03:55:03;22;20;
70915;PMS5003;58557;50.982;-3.222;2022-11-21T03:57:22;25;17;
70915;PMS5003;58557;50.982;-3.222;2022-11-21T03:59:48;21;16;
70915;PMS5003;58557;50.982;-3.222;2022-11-21T04:02:13;20;13;
70915;PMS5003;58557;50.982;-3.222;2022-11-21T04:04:38;17;13;
70915;PMS5003;58557;50.982;-3.222;2022-11-21T04:07:09;21;17;
70915;PMS5003;58557;50.982;-3.222;2022-11-21T04:09:34;19;16;
70915;PMS5003;58557;50.982;-3.222;2022-11-21T04:12:00;18;12;
70915;PMS5003;58557;50.982;-3.222;2022-11-21T04:14:20;14;14;
70915;PMS5003;58557;50.982;-3.222;2022-11-21T04:16:45;12;12;
70915;PMS5003;58557;50.982;-3.222;2022-11-21T04:19:11;19;14;
70915;PMS5003;58557;50.982;-3.222;2022-11-21T04:21:41;16;9;
70915;PMS5003;58557;50.982;-3.222;2022-11-21T04:24:02;19;17;
70915;PMS5003;58557;50.982;-3.222;2022-11-21T04:26:27;13;9;
70915;PMS5003;58557;50.982;-3.222;2022-11-21T04:28:53;13;11;
70915;PMS5003;58557;50.982;-3.222;2022-11-21T04:31:18;8;7;
70915;PMS5003;58557;50.982;-3.222;2022-11-21T04:33:43;13;9;
70915;PMS5003;58557;50.982;-3.222;2022-11-21T04:36:09;12;10;
70915;PMS5003;58557;50.982;-3.222;2022-11-21T04:38:34;7;6;
70915;PMS5003;58557;50.982;-3.222;2022-11-21T04:40:59;8;7;
70915;PMS5003;58557;50.982;-3.222;2022-11-21T04:43:24;9;3;
70915;PMS5003;58557;50.982;-3.222;2022-11-21T04:45:50;10;5;
70915;PMS5003;58557;50.982;-3.222;2022-11-21T04:48:15;4;4;
70915;PMS5003;58557;50.982;-3.222;2022-11-21T04:50:41;7;3;
70915;PMS5003;58557;50.982;-3.222;2022-11-21T04:53:06;14;9;
70915;PMS5003;58557;50.982;-3.222;2022-11-21T04:55:36;16;11;
70915;PMS5003;58557;50.982;-3.222;2022-11-21T04:58:01;15;7;
70915;PMS5003;58557;50.982;-3.222;2022-11-21T05:00:22;7;3;
70915;PMS5003;58557;50.982;-3.222;2022-11-21T05:02:48;7;4;
70915;PMS5003;58557;50.982;-3.222;2022-11-21T05:05:13;4;4;
70915;PMS5003;58557;50.982;-3.222;2022-11-21T05:07:39;11;5;
70915;PMS5003;58557;50.982;-3.222;2022-11-21T05:10:04;11;5;
70915;PMS5003;58557;50.982;-3.222;2022-11-21T05:12:30;10;4;
70915;PMS5003;58557;50.982;-3.222;2022-11-21T05:14:56;10;4;
70915;PMS5003;58557;50.982;-3.222;2022-11-21T05:17:22;5;3;
70915;PMS5003;58557;50.982;-3.222;2022-11-21T05:19:46;8;7;
70915;PMS5003;58557;50.982;-3.222;2022-11-21T05:22:13;12;5;
70915;PMS5003;58557;50.982;-3.222;2022-11-21T05:24:43;6;6;
70915;PMS5003;58557;50.982;-3.222;2022-11-21T05:27:04;5;4;
70915;PMS5003;58557;50.982;-3.222;2022-11-21T05:29:30;12;4;
70915;PMS5003;58557;50.982;-3.222;2022-11-21T05:31:55;11;6;
70915;PMS5003;58557;50.982;-3.222;2022-11-21T05:34:26;9;6;
70915;PMS5003;58557;50.982;-3.222;2022-11-21T05:36:46;5;5;
70915;PMS5003;58557;50.982;-3.222;2022-11-21T05:39:11;5;5;
70915;PMS5003;58557;50.982;-3.222;2022-11-21T05:41:42;5;4;
70915;PMS5003;58557;50.982;-3.222;2022-11-21T05:44:03;16;13;
70915;PMS5003;58557;50.982;-3.222;2022-11-21T05:46:28;8;5;
70915;PMS5003;58557;50.982;-3.222;2022-11-21T05:48:58;8;8;
70915;PMS5003;58557;50.982;-3.222;2022-11-21T05:51:18;4;4;
70915;PMS5003;58557;50.982;-3.222;2022-11-21T05:53:49;10;5;
70915;PMS5003;58557;50.982;-3.222;2022-11-21T05:56:11;6;6;
70915;PMS5003;58557;50.982;-3.222;2022-11-21T05:58:36;5;4;
70915;PMS5003;58557;50.982;-3.222;2022-11-21T06:01:07;9;8;
70915;PMS5003;58557;50.982;-3.222;2022-11-21T06:03:33;14;9;
70915;PMS5003;58557;50.982;-3.222;2022-11-21T06:08:18;8;3;
70915;PMS5003;58557;50.982;-3.222;2022-11-21T06:10:48;10;10;
70915;PMS5003;58557;50.982;-3.222;2022-11-21T06:13:14;8;5;
70915;PMS5003;58557;50.982;-3.222;2022-11-21T06:15:39;9;5;
70915;PMS5003;58557;50.982;-3.222;2022-11-21T06:18:00;15;9;
70915;PMS5003;58557;50.982;-3.222;2022-11-21T06:20:25;12;8;
70915;PMS5003;58557;50.982;-3.222;2022-11-21T06:22:51;3;2;
70915;PMS5003;58557;50.982;-3.222;2022-11-21T06:25:17;8;8;
70915;PMS5003;58557;50.982;-3.222;2022-11-21T06:27:48;8;6;
70915;PMS5003;58557;50.982;-3.222;2022-11-21T06:30:14;9;5;
70915;PMS5003;58557;50.982;-3.222;2022-11-21T06:32:35;6;5;
70915;PMS5003;58557;50.982;-3.222;2022-11-21T06:34:59;5;3;
70915;PMS5003;58557;50.982;-3.222;2022-11-21T06:37:27;6;4;
70915;PMS5003;58557;50.982;-3.222;2022-11-21T06:39:56;6;4;
70915;PMS5003;58557;50.982;-3.222;2022-11-21T06:42:22;10;6;
70915;PMS5003;58557;50.982;-3.222;2022-11-21T06:44:42;5;3;
70915;PMS5003;58557;50.982;-3.222;2022-11-21T06:47:08;9;6;
70915;PMS5003;58557;50.982;-3.222;2022-11-21T06:49:35;5;5;
70915;PMS5003;58557;50.982;-3.222;2022-11-21T06:51:59;12;11;
70915;PMS5003;58557;50.982;-3.222;2022-11-21T06:54:25;11;6;
70915;PMS5003;58557;50.982;-3.222;2022-11-21T06:56:51;9;6;
70915;PMS5003;58557;50.982;-3.222;2022-11-21T06:59:21;2;2;
70915;PMS5003;58557;50.982;-3.222;2022-11-21T07:01:42;6;4;
70915;PMS5003;58557;50.982;-3.222;2022-11-21T07:04:08;5;3;
70915;PMS5003;58557;50.982;-3.222;2022-11-21T07:06:39;4;3;
70915;PMS5003;58557;50.982;-3.222;2022-11-21T07:08:59;8;5;
70915;PMS5003;58557;50.982;-3.222;2022-11-21T07:11:24;9;4;
70915;PMS5003;58557;50.982;-3.222;2022-11-21T07:13:50;14;10;
70915;PMS5003;58557;50.982;-3.222;2022-11-21T07:16:15;7;5;
70915;PMS5003;58557;50.982;-3.222;2022-11-21T07:18:46;4;3;
70915;PMS5003;58557;50.982;-3.222;2022-11-21T07:21:07;7;3;
70915;PMS5003;58557;50.982;-3.222;2022-11-21T07:23:32;7;5;
70915;PMS5003;58557;50.982;-3.222;2022-11-21T07:25:58;9;5;
70915;PMS5003;58557;50.982;-3.222;2022-11-21T07:28:27;11;5;
70915;PMS5003;58557;50.982;-3.222;2022-11-21T07:30:54;11;5;
70915;PMS5003;58557;50.982;-3.222;2022-11-21T07:33:15;8;5;
70915;PMS5003;58557;50.982;-3.222;2022-11-21T07:35:39;10;4;
70915;PMS5003;58557;50.982;-3.222;2022-11-21T07:38:04;9;8;
70915;PMS5003;58557;50.982;-3.222;2022-11-21T07:40:30;8;7;
70915;PMS5003;58557;50.982;-3.222;2022-11-21T07:42:59;10;4;
70915;PMS5003;58557;50.982;-3.222;2022-11-21T07:45:22;7;3;
70915;PMS5003;58557;50.982;-3.222;2022-11-21T07:47:47;3;3;
70915;PMS5003;58557;50.982;-3.222;2022-11-21T07:50:13;8;5;
70915;PMS5003;58557;50.982;-3.222;2022-11-21T07:52:38;4;4;
70915;PMS5003;58557;50.982;-3.222;2022-11-21T07:55:05;3;3;
70915;PMS5003;58557;50.982;-3.222;2022-11-21T07:57:29;7;5;
70915;PMS5003;58557;50.982;-3.222;2022-11-21T08:00:00;8;3;
70915;PMS5003;58557;50.982;-3.222;2022-11-21T08:02:20;4;3;
70915;PMS5003;58557;50.982;-3.222;2022-11-21T08:04:50;8;4;
70915;PMS5003;58557;50.982;-3.222;2022-11-21T08:07:17;7;4;
70915;PMS5003;58557;50.982;-3.222;2022-11-21T08:09:41;5;4;
70915;PMS5003;58557;50.982;-3.222;2022-11-21T08:12:01;3;2;
70915;PMS5003;58557;50.982;-3.222;2022-11-21T08:14:27;4;4;
70915;PMS5003;58557;50.982;-3.222;2022-11-21T08:16:53;5;5;
70915;PMS5003;58557;50.982;-3.222;2022-11-21T08:19:18;7;4;
70915;PMS5003;58557;50.982;-3.222;2022-11-21T08:21:48;4;2;
70915;PMS5003;58557;50.982;-3.222;2022-11-21T08:24:10;3;2;
70915;PMS5003;58557;50.982;-3.222;2022-11-21T08:26:35;9;3;
70915;PMS5003;58557;50.982;-3.222;2022-11-21T08:29:05;10;9;
70915;PMS5003;58557;50.982;-3.222;2022-11-21T08:31:25;7;3;
70915;PMS5003;58557;50.982;-3.222;2022-11-21T08:33:55;7;4;
70915;PMS5003;58557;50.982;-3.222;2022-11-21T08:36:16;4;3;
70915;PMS5003;58557;50.982;-3.222;2022-11-21T08:38:42;5;3;
70915;PMS5003;58557;50.982;-3.222;2022-11-21T08:41:13;3;3;
70915;PMS5003;58557;50.982;-3.222;2022-11-21T08:43:33;4;1;
70915;PMS5003;58557;50.982;-3.222;2022-11-21T08:45:58;1;1;
70915;PMS5003;58557;50.982;-3.222;2022-11-21T08:48:23;5;4;
70915;PMS5003;58557;50.982;-3.222;2022-11-21T08:50:49;3;2;
70915;PMS5003;58557;50.982;-3.222;2022-11-21T08:53:14;6;5;
70915;PMS5003;58557;50.982;-3.222;2022-11-21T08:55:40;3;3;
70915;PMS5003;58557;50.982;-3.222;2022-11-21T08:58:05;4;1;
70915;PMS5003;58557;50.982;-3.222;2022-11-21T09:00:31;5;2;
70915;PMS5003;58557;50.982;-3.222;2022-11-21T09:02:57;3;2;
70915;PMS5003;58557;50.982;-3.222;2022-11-21T09:05:22;2;2;
70915;PMS5003;58557;50.982;-3.222;2022-11-21T09:07:50;3;2;
70915;PMS5003;58557;50.982;-3.222;2022-11-21T09:10:14;5;3;
70915;PMS5003;58557;50.982;-3.222;2022-11-21T09:12:39;4;2;
70915;PMS5003;58557;50.982;-3.222;2022-11-21T09:15:05;3;2;
70915;PMS5003;58557;50.982;-3.222;2022-11-21T09:17:31;2;2;
70915;PMS5003;58557;50.982;-3.222;2022-11-21T09:19:56;1;1;
70915;PMS5003;58557;50.982;-3.222;2022-11-21T09:22:22;4;3;
70915;PMS5003;58557;50.982;-3.222;2022-11-21T09:24:47;4;2;
70915;PMS5003;58557;50.982;-3.222;2022-11-21T09:27:13;2;0;
70915;PMS5003;58557;50.982;-3.222;2022-11-21T09:29:39;1;1;
70915;PMS5003;58557;50.982;-3.222;2022-11-21T09:32:05;0;0;
70915;PMS5003;58557;50.982;-3.222;2022-11-21T09:34:30;2;2;
70915;PMS5003;58557;50.982;-3.222;2022-11-21T09:36:55;1;1;
70915;PMS5003;58557;50.982;-3.222;2022-11-21T09:39:20;1;1;
70915;PMS5003;58557;50.982;-3.222;2022-11-21T09:41:49;0;0;
70915;PMS5003;58557;50.982;-3.222;2022-11-21T09:44:14;2;1;
70915;PMS5003;58557;50.982;-3.222;2022-11-21T09:46:39;1;1;
70915;PMS5003;58557;50.982;-3.222;2022-11-21T09:49:04;4;0;
70915;PMS5003;58557;50.982;-3.222;2022-11-21T09:51:30;0;0;
70915;PMS5003;58557;50.982;-3.222;2022-11-21T09:53:56;2;0;
70915;PMS5003;58557;50.982;-3.222;2022-11-21T09:56:21;1;0;
70915;PMS5003;58557;50.982;-3.222;2022-11-21T09:58:47;0;0;
70915;PMS5003;58557;50.982;-3.222;2022-11-21T10:01:13;1;1;
70915;PMS5003;58557;50.982;-3.222;2022-11-21T10:03:40;2;1;
70915;PMS5003;58557;50.982;-3.222;2022-11-21T10:06:08;1;1;
70915;PMS5003;58557;50.982;-3.222;2022-11-21T10:08:33;2;1;
70915;PMS5003;58557;50.982;-3.222;2022-11-21T10:10:57;1;0;
70915;PMS5003;58557;50.982;-3.222;2022-11-21T10:13:27;1;0;
70915;PMS5003;58557;50.982;-3.222;2022-11-21T10:15:52;1;1;
70915;PMS5003;58557;50.982;-3.222;2022-11-21T10:20:44;1;1;
70915;PMS5003;58557;50.982;-3.222;2022-11-21T10:23:10;0;0;
70915;PMS5003;58557;50.982;-3.222;2022-11-21T10:25:32;3;0;
70915;PMS5003;58557;50.982;-3.222;2022-11-21T10:27:57;0;0;
70915;PMS5003;58557;50.982;-3.222;2022-11-21T10:30:22;0;0;
70915;PMS5003;58557;50.982;-3.222;2022-11-21T10:32:49;0;0;
70915;PMS5003;58557;50.982;-3.222;2022-11-21T10:35:15;0;0;
70915;PMS5003;58557;50.982;-3.222;2022-11-21T10:37:42;0;0;
70915;PMS5003;58557;50.982;-3.222;2022-11-21T10:40:08;2;1;
70915;PMS5003;58557;50.982;-3.222;2022-11-21T10:42:33;0;0;
70915;PMS5003;58557;50.982;-3.222;2022-11-21T10:44:58;0;0;
70915;PMS5003;58557;50.982;-3.222;2022-11-21T10:47:24;0;0;
70915;PMS5003;58557;50.982;-3.222;2022-11-21T10:49:48;1;0;
70915;PMS5003;58557;50.982;-3.222;2022-11-21T10:52:14;0;0;
70915;PMS5003;58557;50.982;-3.222;2022-11-21T10:57:06;0;0;
70915;PMS5003;58557;50.982;-3.222;2022-11-21T10:59:31;0;0;
70915;PMS5003;58557;50.982;-3.222;2022-11-21T11:01:58;0;0;
70915;PMS5003;58557;50.982;-3.222;2022-11-21T11:04:23;0;0;
70915;PMS5003;58557;50.982;-3.222;2022-11-21T11:06:49;0;0;
70915;PMS5003;58557;50.982;-3.222;2022-11-21T11:09:21;0;0;
70915;PMS5003;58557;50.982;-3.222;2022-11-21T11:11:41;0;0;
70915;PMS5003;58557;50.982;-3.222;2022-11-21T11:14:12;0;0;
70915;PMS5003;58557;50.982;-3.222;2022-11-21T11:16:33;0;0;
70915;PMS5003;58557;50.982;-3.222;2022-11-21T11:18:59;0;0;
70915;PMS5003;58557;50.982;-3.222;2022-11-21T11:21:24;2;0;
70915;PMS5003;58557;50.982;-3.222;2022-11-21T11:23:50;3;1;
70915;PMS5003;58557;50.982;-3.222;2022-11-21T11:26:23;0;0;
70915;PMS5003;58557;50.982;-3.222;2022-11-21T11:28:41;1;1;
70915;PMS5003;58557;50.982;-3.222;2022-11-21T11:31:07;2;2;
70915;PMS5003;58557;50.982;-3.222;2022-11-21T11:33:34;2;2;
70915;PMS5003;58557;50.982;-3.222;2022-11-21T11:36:01;0;0;
70915;PMS5003;58557;50.982;-3.222;2022-11-21T11:38:24;0;0;
70915;PMS5003;58557;50.982;-3.222;2022-11-21T11:40:50;1;1;
70915;PMS5003;58557;50.982;-3.222;2022-11-21T11:43:23;0;0;
70915;PMS5003;58557;50.982;-3.222;2022-11-21T11:45:46;0;0;
70915;PMS5003;58557;50.982;-3.222;2022-11-21T11:48:07;0;0;
70915;PMS5003;58557;50.982;-3.222;2022-11-21T11:50:33;0;0;
70915;PMS5003;58557;50.982;-3.222;2022-11-21T11:53:00;0;0;
70915;PMS5003;58557;50.982;-3.222;2022-11-21T11:55:25;0;0;
70915;PMS5003;58557;50.982;-3.222;2022-11-21T11:57:49;0;0;
70915;PMS5003;58557;50.982;-3.222;2022-11-21T12:00:20;0;0;
70915;PMS5003;58557;50.982;-3.222;2022-11-21T12:02:44;0;0;
70915;PMS5003;58557;50.982;-3.222;2022-11-21T12:05:08;0;0;
70915;PMS5003;58557;50.982;-3.222;2022-11-21T12:07:33;1;1;
70915;PMS5003;58557;50.982;-3.222;2022-11-21T12:09:58;1;1;
70915;PMS5003;58557;50.982;-3.222;2022-11-21T12:12:25;0;0;
70915;PMS5003;58557;50.982;-3.222;2022-11-21T12:14:52;9;9;
70915;PMS5003;58557;50.982;-3.222;2022-11-21T12:17:14;0;0;
70915;PMS5003;58557;50.982;-3.222;2022-11-21T12:19:39;1;0;
70915;PMS5003;58557;50.982;-3.222;2022-11-21T12:22:06;3;3;
70915;PMS5003;58557;50.982;-3.222;2022-11-21T12:24:31;10;9;
70915;PMS5003;58557;50.982;-3.222;2022-11-21T12:26:57;1;1;
70915;PMS5003;58557;50.982;-3.222;2022-11-21T12:29:27;2;1;
70915;PMS5003;58557;50.982;-3.222;2022-11-21T12:31:53;2;2;
70915;PMS5003;58557;50.982;-3.222;2022-11-21T12:34:17;8;2;
70915;PMS5003;58557;50.982;-3.222;2022-11-21T12:36:39;10;6;
70915;PMS5003;58557;50.982;-3.222;2022-11-21T12:39:14;1;1;
70915;PMS5003;58557;50.982;-3.222;2022-11-21T12:41:31;4;4;
70915;PMS5003;58557;50.982;-3.222;2022-11-21T12:43:58;4;3;
70915;PMS5003;58557;50.982;-3.222;2022-11-21T12:46:23;3;1;
70915;PMS5003;58557;50.982;-3.222;2022-11-21T12:48:49;5;3;
70915;PMS5003;58557;50.982;-3.222;2022-11-21T12:51:21;5;4;
70915;PMS5003;58557;50.982;-3.222;2022-11-21T12:53:39;1;1;
70915;PMS5003;58557;50.982;-3.222;2022-11-21T12:56:05;2;2;
70915;PMS5003;58557;50.982;-3.222;2022-11-21T12:58:30;3;1;
70915;PMS5003;58557;50.982;-3.222;2022-11-21T13:00:59;1;1;
70915;PMS5003;58557;50.982;-3.222;2022-11-21T13:03:26;5;5;
70915;PMS5003;58557;50.982;-3.222;2022-11-21T13:05:47;4;1;
70915;PMS5003;58557;50.982;-3.222;2022-11-21T13:08:13;5;3;
70915;PMS5003;58557;50.982;-3.222;2022-11-21T13:10:37;3;3;
70915;PMS5003;58557;50.982;-3.222;2022-11-21T13:13:04;3;3;
70915;PMS5003;58557;50.982;-3.222;2022-11-21T13:15:29;11;10;
70915;PMS5003;58557;50.982;-3.222;2022-11-21T13:17:54;3;2;
70915;PMS5003;58557;50.982;-3.222;2022-11-21T13:20:22;4;2;
70915;PMS5003;58557;50.982;-3.222;2022-11-21T13:22:50;4;4;
70915;PMS5003;58557;50.982;-3.222;2022-11-21T13:25:10;5;3;
70915;PMS5003;58557;50.982;-3.222;2022-11-21T13:27:35;7;2;
70915;PMS5003;58557;50.982;-3.222;2022-11-21T13:34:51;8;3;
70915;PMS5003;58557;50.982;-3.222;2022-11-21T13:39:43;7;2;
70915;PMS5003;58557;50.982;-3.222;2022-11-21T13:42:09;4;3;
70915;PMS5003;58557;50.982;-3.222;2022-11-21T13:44:37;2;2;
70915;PMS5003;58557;50.982;-3.222;2022-11-21T13:47:00;2;1;
70915;PMS5003;58557;50.982;-3.222;2022-11-21T13:49:24;8;7;
70915;PMS5003;58557;50.982;-3.222;2022-11-21T13:51:51;2;2;
70915;PMS5003;58557;50.982;-3.222;2022-11-21T13:54:19;9;9;
70915;PMS5003;58557;50.982;-3.222;2022-11-21T13:56:42;6;2;
70915;PMS5003;58557;50.982;-3.222;2022-11-21T13:59:13;3;2;
70915;PMS5003;58557;50.982;-3.222;2022-11-21T14:01:39;8;8;
70915;PMS5003;58557;50.982;-3.222;2022-11-21T14:06:29;3;2;
70915;PMS5003;58557;50.982;-3.222;2022-11-21T14:11:18;4;4;
70915;PMS5003;58557;50.982;-3.222;2022-11-21T14:13:41;3;3;
70915;PMS5003;58557;50.982;-3.222;2022-11-21T14:16:09;8;4;
70915;PMS5003;58557;50.982;-3.222;2022-11-21T14:18:32;5;3;
70915;PMS5003;58557;50.982;-3.222;2022-11-21T14:20:58;5;3;
70915;PMS5003;58557;50.982;-3.222;2022-11-21T14:23:23;4;3;
70915;PMS5003;58557;50.982;-3.222;2022-11-21T14:25:49;4;4;
70915;PMS5003;58557;50.982;-3.222;2022-11-21T14:28:14;8;3;
70915;PMS5003;58557;50.982;-3.222;2022-11-21T14:30:40;4;2;
70915;PMS5003;58557;50.982;-3.222;2022-11-21T14:35:30;9;5;
70915;PMS5003;58557;50.982;-3.222;2022-11-21T14:37:56;5;2;
70915;PMS5003;58557;50.982;-3.222;2022-11-21T14:40:22;9;5;
70915;PMS5003;58557;50.982;-3.222;2022-11-21T14:42:47;9;2;
70915;PMS5003;58557;50.982;-3.222;2022-11-21T14:45:14;9;5;
70915;PMS5003;58557;50.982;-3.222;2022-11-21T14:50:03;3;2;
70915;PMS5003;58557;50.982;-3.222;2022-11-21T14:52:28;4;4;
70915;PMS5003;58557;50.982;-3.222;2022-11-21T14:54:55;3;3;
70915;PMS5003;58557;50.982;-3.222;2022-11-21T14:57:21;11;5;
70915;PMS5003;58557;50.982;-3.222;2022-11-21T14:59:45;3;2;
70915;PMS5003;58557;50.982;-3.222;2022-11-21T15:02:11;10;10;
70915;PMS5003;58557;50.982;-3.222;2022-11-21T15:04:37;7;4;
70915;PMS5003;58557;50.982;-3.222;2022-11-21T15:07:02;10;8;
70915;PMS5003;58557;50.982;-3.222;2022-11-21T15:09:27;4;4;
70915;PMS5003;58557;50.982;-3.222;2022-11-21T15:11:54;10;5;
70915;PMS5003;58557;50.982;-3.222;2022-11-21T15:14:19;2;2;
70915;PMS5003;58557;50.982;-3.222;2022-11-21T15:16:44;4;4;
70915;PMS5003;58557;50.982;-3.222;2022-11-21T15:19:09;8;5;
70915;PMS5003;58557;50.982;-3.222;2022-11-21T15:21:34;8;7;
70915;PMS5003;58557;50.982;-3.222;2022-11-21T15:26:27;11;5;
70915;PMS5003;58557;50.982;-3.222;2022-11-21T15:28:52;11;10;
70915;PMS5003;58557;50.982;-3.222;2022-11-21T15:31:21;8;4;
70915;PMS5003;58557;50.982;-3.222;2022-11-21T15:36:10;3;3;
70915;PMS5003;58557;50.982;-3.222;2022-11-21T15:38:40;4;3;
70915;PMS5003;58557;50.982;-3.222;2022-11-21T15:41:00;3;3;
70915;PMS5003;58557;50.982;-3.222;2022-11-21T15:43:33;9;5;
70915;PMS5003;58557;50.982;-3.222;2022-11-21T15:45:58;9;3;
70915;PMS5003;58557;50.982;-3.222;2022-11-21T15:48:14;8;4;
70915;PMS5003;58557;50.982;-3.222;2022-11-21T15:50:39;2;2;
70915;PMS5003;58557;50.982;-3.222;2022-11-21T15:53:04;6;3;
70915;PMS5003;58557;50.982;-3.222;2022-11-21T15:55:29;7;6;
70915;PMS5003;58557;50.982;-3.222;2022-11-21T15:57:54;8;6;
70915;PMS5003;58557;50.982;-3.222;2022-11-21T16:00:19;4;4;
70915;PMS5003;58557;50.982;-3.222;2022-11-21T16:02:44;8;8;
70915;PMS5003;58557;50.982;-3.222;2022-11-21T16:05:11;4;4;
70915;PMS5003;58557;50.982;-3.222;2022-11-21T16:07:34;6;4;
70915;PMS5003;58557;50.982;-3.222;2022-11-21T16:09:59;12;3;
70915;PMS5003;58557;50.982;-3.222;2022-11-21T16:12:24;6;3;
70915;PMS5003;58557;50.982;-3.222;2022-11-21T16:14:49;2;2;
70915;PMS5003;58557;50.982;-3.222;2022-11-21T16:17:14;3;2;
70915;PMS5003;58557;50.982;-3.222;2022-11-21T16:19:40;7;3;
70915;PMS5003;58557;50.982;-3.222;2022-11-21T16:22:05;6;4;
70915;PMS5003;58557;50.982;-3.222;2022-11-21T16:24:30;10;7;
70915;PMS5003;58557;50.982;-3.222;2022-11-21T16:26:55;7;3;
70915;PMS5003;58557;50.982;-3.222;2022-11-21T16:29:21;4;3;
70915;PMS5003;58557;50.982;-3.222;2022-11-21T16:31:46;6;6;
70915;PMS5003;58557;50.982;-3.222;2022-11-21T16:34:11;9;4;
70915;PMS5003;58557;50.982;-3.222;2022-11-21T16:36:36;8;6;
70915;PMS5003;58557;50.982;-3.222;2022-11-21T16:39:01;4;4;
70915;PMS5003;58557;50.982;-3.222;2022-11-21T16:41:26;8;4;